Terminal Aerodrome Forecast
Issued by NWS

Home | Current Version | Previous Version | Text Only | Print | Product List | Glossary On
Versions: 1 2 3 4 5 6 7 8 9 10 11 12 13 14 15
984
FTUS42 TJSJ 171742
TAFJSJ
TAF
TJSJ 171742Z 1718/1818 07016KT P6SM FEW020 SCT030
     FM172300 08011KT P6SM VCSH SCT025 SCT050
     FM181200 07018G25KT P6SM -SHRA SCT025 SCT050 SCT080=

USA.gov is the U.S. government's official web portal to all federal, state and local government web resources and services.